createdAt,value
2019-03-27T00:00:16.984Z,73.70
2019-03-27T00:02:47.236Z,73.60
2019-03-27T00:05:16.494Z,73.80
2019-03-27T00:07:45.754Z,74.00
2019-03-27T00:10:15.267Z,74.30
2019-03-27T00:12:44.850Z,74.90
2019-03-27T00:15:14.399Z,75.50
2019-03-27T00:17:43.976Z,75.40
2019-03-27T00:20:13.585Z,75.60
2019-03-27T00:22:42.852Z,75.60
2019-03-27T00:25:12.182Z,75.80
2019-03-27T00:27:41.472Z,76.40
2019-03-27T00:30:12.543Z,76.60
2019-03-27T00:32:41.794Z,76.60
2019-03-27T00:35:11.126Z,77.00
2019-03-27T00:37:40.407Z,77.20
2019-03-27T00:40:10.202Z,77.20
2019-03-27T00:42:39.743Z,77.40
2019-03-27T00:45:09.756Z,77.70
2019-03-27T00:47:39.026Z,77.80
2019-03-27T00:50:09.626Z,77.90
2019-03-27T00:52:38.903Z,78.10
2019-03-27T00:55:09.117Z,78.20
2019-03-27T00:57:38.547Z,78.40
2019-03-27T01:00:13.607Z,78.60
2019-03-27T04:03:03.507Z,87.50
2019-03-27T04:05:32.786Z,87.40
2019-03-27T04:08:02.061Z,87.20
2019-03-27T04:10:31.310Z,87.20
2019-03-27T04:13:00.587Z,87.30
2019-03-27T04:15:29.857Z,87.60
2019-03-27T04:17:59.135Z,87.80
2019-03-27T04:20:28.392Z,87.70
2019-03-27T04:22:57.671Z,88.40
2019-03-27T04:25:27.196Z,87.70
2019-03-27T04:27:56.803Z,87.30
2019-03-27T04:30:26.075Z,87.20
2019-03-27T04:32:55.612Z,87.20
2019-03-27T04:35:24.880Z,87.00
2019-03-27T04:37:55.119Z,87.10
2019-03-27T04:40:24.383Z,87.60
2019-03-27T04:42:53.675Z,87.80
2019-03-27T04:45:22.934Z,88.10
2019-03-27T04:47:52.207Z,89.00
2019-03-27T04:50:21.747Z,88.20
2019-03-27T04:52:51.025Z,88.30
2019-03-27T04:55:21.363Z,89.00
2019-03-27T04:57:50.882Z,89.20
2019-03-27T05:00:20.491Z,89.00
2019-03-27T05:02:50.828Z,88.50
2019-03-27T05:05:20.104Z,88.80
2019-03-27T05:07:49.364Z,88.70
2019-03-27T05:10:18.654Z,89.10
2019-03-27T05:12:47.918Z,89.20
2019-03-27T05:15:17.186Z,89.20
2019-03-27T05:17:46.773Z,89.10
2019-03-27T05:20:16.070Z,88.90
2019-03-27T05:22:45.342Z,88.70
2019-03-27T05:25:14.610Z,88.60
2019-03-27T05:27:43.875Z,88.20
2019-03-27T05:30:14.850Z,88.30
2019-03-27T05:32:44.129Z,87.60
2019-03-27T05:35:13.386Z,88.20
2019-03-27T05:37:42.654Z,88.50
2019-03-27T05:40:11.930Z,88.20
2019-03-27T05:42:41.206Z,88.20
2019-03-27T05:45:10.643Z,88.60
2019-03-27T05:47:40.190Z,88.50
2019-03-27T05:50:10.015Z,88.50
2019-03-27T05:52:39.290Z,88.30
2019-03-27T05:55:08.625Z,88.30
2019-03-27T05:57:37.910Z,88.30
2019-03-27T06:00:07.410Z,88.10
2019-03-27T06:02:36.678Z,88.00
2019-03-27T06:05:06.586Z,88.00
2019-03-27T06:07:35.851Z,87.90
2019-03-27T06:10:06.258Z,87.80
2019-03-27T06:12:35.538Z,87.50
2019-03-27T06:15:06.648Z,87.20
2019-03-27T06:17:35.930Z,87.10
2019-03-27T06:20:06.848Z,86.80
2019-03-27T06:22:36.115Z,86.70
2019-03-27T06:25:07.093Z,86.60
2019-03-27T06:27:37.329Z,87.00
2019-03-27T06:30:07.234Z,86.90
2019-03-27T06:32:36.676Z,86.50
2019-03-27T06:35:08.566Z,86.10
2019-03-27T06:37:37.838Z,86.00
2019-03-27T06:40:07.645Z,86.20
2019-03-27T06:42:36.946Z,86.20
2019-03-27T06:45:07.832Z,85.70
2019-03-27T06:47:37.098Z,85.50
2019-03-27T06:50:06.990Z,85.20
2019-03-27T06:52:36.477Z,84.70
2019-03-27T06:55:07.196Z,84.40
2019-03-27T06:57:36.462Z,84.20
2019-03-27T07:00:10.698Z,84.10
2019-03-27T07:02:39.960Z,83.90
2019-03-27T07:05:09.958Z,83.40
2019-03-27T07:07:39.231Z,83.00
2019-03-27T07:10:09.727Z,83.00
2019-03-27T07:12:38.990Z,82.90
2019-03-27T07:15:08.759Z,82.80
2019-03-27T07:17:38.026Z,82.80
2019-03-27T07:20:08.040Z,82.30
2019-03-27T07:22:37.312Z,82.20
2019-03-27T07:25:07.631Z,81.70
2019-03-27T07:27:36.895Z,81.70
2019-03-27T07:30:07.507Z,80.90
2019-03-27T07:32:36.771Z,80.20
2019-03-27T07:35:06.577Z,79.90
2019-03-27T07:37:36.297Z,80.20
2019-03-27T07:40:07.299Z,80.20
2019-03-27T07:42:36.572Z,79.60
2019-03-27T07:45:07.174Z,79.30
2019-03-27T07:47:36.439Z,78.40
2019-03-27T07:50:07.142Z,78.20
2019-03-27T07:52:36.714Z,77.90
2019-03-27T07:55:18.787Z,77.50
2019-03-27T07:57:37.790Z,76.90
2019-03-27T08:00:13.326Z,76.60
2019-03-27T08:02:42.591Z,75.20
2019-03-27T08:05:12.948Z,74.70
2019-03-27T08:07:42.287Z,75.10
2019-03-27T08:10:11.619Z,74.60
2019-03-27T08:12:40.895Z,74.10
2019-03-27T08:15:10.605Z,74.50
2019-03-27T08:17:39.863Z,73.40
2019-03-27T08:20:09.775Z,72.70
2019-03-27T08:22:39.036Z,72.90
2019-03-27T08:25:09.062Z,73.30
2019-03-27T08:27:39.502Z,72.50
2019-03-27T08:30:13.898Z,72.20
2019-03-27T08:32:43.166Z,72.20
2019-03-27T08:35:12.670Z,72.20
2019-03-27T08:37:41.955Z,72.10
2019-03-27T08:40:11.830Z,72.20
2019-03-27T08:42:41.384Z,72.20
2019-03-27T08:45:11.486Z,72.40
2019-03-27T08:47:40.762Z,72.40
2019-03-27T08:50:12.066Z,71.70
2019-03-27T08:52:41.338Z,72.70
2019-03-27T08:55:13.557Z,70.20
2019-03-27T08:57:41.818Z,69.90
2019-03-27T09:00:14.170Z,69.30
2019-03-27T09:02:43.440Z,67.50
2019-03-27T09:05:12.838Z,67.20
2019-03-27T09:07:42.107Z,67.00
2019-03-27T09:10:12.018Z,65.70
2019-03-27T09:12:41.292Z,64.90
2019-03-27T09:15:10.839Z,65.40
2019-03-27T09:17:40.110Z,64.90
2019-03-27T09:20:09.831Z,64.00
2019-03-27T09:22:39.099Z,64.00
2019-03-27T09:25:08.716Z,61.50
2019-03-27T09:27:37.986Z,60.50
2019-03-27T09:30:10.660Z,61.40
2019-03-27T09:32:40.010Z,61.70
2019-03-27T09:35:09.940Z,59.60
2019-03-27T09:37:39.231Z,59.00
2019-03-27T09:40:08.934Z,59.30
2019-03-27T09:42:38.206Z,59.10
2019-03-27T09:45:09.387Z,59.00
2019-03-27T09:47:38.664Z,58.50
2019-03-27T09:50:08.679Z,59.40
2019-03-27T09:52:37.953Z,60.00
2019-03-27T09:55:07.218Z,60.40
2019-03-27T09:57:36.493Z,59.60
2019-03-27T10:00:08.139Z,59.40
2019-03-27T10:02:37.415Z,58.70
2019-03-27T10:05:07.924Z,57.50
2019-03-27T10:07:38.165Z,57.30
2019-03-27T10:10:07.785Z,57.30
2019-03-27T10:12:37.048Z,57.80
2019-03-27T10:15:09.188Z,58.00
2019-03-27T10:17:38.706Z,56.70
2019-03-27T10:20:08.219Z,55.50
2019-03-27T10:22:37.493Z,54.50
2019-03-27T10:25:08.686Z,50.70
2019-03-27T10:27:37.950Z,51.00
2019-03-27T10:30:07.858Z,50.80
2019-03-27T10:32:37.122Z,48.90
2019-03-27T10:35:07.923Z,48.50
2019-03-27T10:37:37.524Z,49.20
2019-03-27T10:40:08.130Z,48.40
2019-03-27T10:42:37.466Z,47.90
2019-03-27T10:45:07.182Z,47.40
2019-03-27T10:47:36.446Z,49.90
2019-03-27T10:50:17.467Z,50.60
2019-03-27T10:52:38.378Z,50.10
2019-03-27T10:55:08.578Z,50.00
2019-03-27T10:57:37.859Z,50.30
2019-03-27T11:00:11.284Z,47.30
2019-03-27T11:02:40.816Z,47.50
2019-03-27T11:05:10.695Z,47.30
2019-03-27T11:07:39.958Z,45.90
2019-03-27T11:10:10.386Z,45.40
2019-03-27T11:12:39.646Z,47.10
2019-03-27T11:15:11.054Z,46.30
2019-03-27T11:17:40.310Z,46.80
2019-03-27T11:20:10.218Z,45.70
2019-03-27T11:22:39.552Z,44.40
2019-03-27T11:25:09.650Z,43.90
2019-03-27T11:27:38.931Z,43.10
2019-03-27T11:30:09.735Z,43.30
2019-03-27T11:32:39.162Z,43.50
2019-03-27T11:35:08.701Z,44.20
2019-03-27T11:37:38.274Z,43.90
2019-03-27T11:40:07.978Z,44.00
2019-03-27T11:42:37.239Z,43.90
2019-03-27T11:45:08.347Z,42.90
2019-03-27T11:47:37.617Z,42.90
2019-03-27T11:50:09.384Z,42.80
2019-03-27T11:52:38.669Z,43.30
2019-03-27T11:55:08.187Z,44.30
2019-03-27T11:57:37.447Z,44.00
2019-03-27T12:00:09.586Z,45.00
2019-03-27T12:02:40.271Z,44.70
2019-03-27T12:05:10.215Z,45.50
2019-03-27T12:07:39.529Z,46.10
2019-03-27T12:10:09.462Z,46.20
2019-03-27T12:12:38.734Z,45.00
2019-03-27T12:15:09.534Z,45.80
2019-03-27T12:17:38.810Z,45.20
2019-03-27T12:20:08.070Z,45.40
2019-03-27T12:22:38.416Z,44.60
2019-03-27T12:25:08.110Z,44.20
2019-03-27T12:27:37.722Z,43.60
2019-03-27T12:30:08.029Z,44.20
2019-03-27T12:32:37.304Z,43.30
2019-03-27T12:35:06.733Z,43.40
2019-03-27T12:37:36.002Z,44.50
2019-03-27T12:40:11.401Z,42.80
2019-03-27T12:42:37.209Z,44.10
2019-03-27T12:45:07.599Z,42.70
2019-03-27T12:47:36.874Z,42.80
2019-03-27T12:50:07.382Z,42.30
2019-03-27T12:52:36.802Z,42.50
2019-03-27T12:55:07.082Z,42.20
2019-03-27T12:57:36.351Z,43.70
2019-03-27T13:00:08.680Z,43.60
2019-03-27T13:02:37.946Z,44.00
2019-03-27T13:05:07.951Z,43.30
2019-03-27T13:07:49.379Z,43.10
2019-03-27T13:10:08.521Z,43.60
2019-03-27T13:12:37.783Z,42.80
2019-03-27T13:15:07.970Z,42.30
2019-03-27T13:17:37.245Z,42.60
2019-03-27T13:20:07.858Z,40.70
2019-03-27T13:22:38.350Z,39.60
2019-03-27T13:25:09.302Z,39.10
2019-03-27T13:27:39.410Z,38.70
2019-03-27T13:30:09.910Z,38.50
2019-03-27T13:32:39.178Z,38.50
2019-03-27T13:35:08.787Z,38.00
2019-03-27T13:37:38.046Z,38.70
2019-03-27T13:40:10.600Z,37.20
2019-03-27T13:42:39.870Z,38.30
2019-03-27T13:45:10.678Z,38.90
2019-03-27T13:47:39.962Z,39.80
2019-03-27T13:50:13.140Z,40.90
2019-03-27T13:52:42.741Z,40.80
2019-03-27T13:55:12.238Z,40.70
2019-03-27T13:57:41.878Z,40.60
2019-03-27T14:00:14.348Z,40.60
2019-03-27T14:02:43.951Z,39.90
2019-03-27T14:05:15.005Z,39.90
2019-03-27T14:07:44.270Z,39.90
2019-03-27T14:10:14.270Z,39.10
2019-03-27T14:12:43.542Z,39.60
2019-03-27T14:15:13.450Z,39.90
2019-03-27T14:17:42.730Z,40.00
2019-03-27T14:20:12.642Z,40.60
2019-03-27T14:22:42.080Z,41.10
2019-03-27T14:25:11.662Z,40.60
2019-03-27T14:27:40.923Z,40.30
2019-03-27T14:30:13.438Z,40.60
2019-03-27T14:32:42.949Z,40.00
2019-03-27T14:35:12.693Z,40.00
2019-03-27T14:37:41.954Z,40.10
2019-03-27T14:40:11.559Z,39.60
2019-03-27T14:42:40.826Z,40.10
2019-03-27T14:45:10.440Z,38.40
2019-03-27T14:47:39.711Z,38.60
2019-03-27T14:50:09.412Z,36.40
2019-03-27T14:52:38.755Z,36.30
2019-03-27T14:55:08.558Z,36.30
2019-03-27T14:57:38.472Z,36.10
2019-03-27T15:00:10.156Z,36.30
2019-03-27T15:02:40.464Z,36.40
2019-03-27T15:05:10.177Z,35.90
2019-03-27T15:07:39.448Z,36.00
2019-03-27T15:10:09.454Z,36.30
2019-03-27T15:12:40.275Z,36.80
2019-03-27T15:15:13.595Z,35.90
2019-03-27T15:17:42.895Z,33.90
2019-03-27T15:20:12.654Z,33.90
2019-03-27T15:22:42.002Z,34.10
2019-03-27T15:25:11.270Z,33.20
2019-03-27T15:27:41.610Z,34.20
2019-03-27T15:30:13.296Z,35.50
2019-03-27T15:32:43.675Z,36.30
2019-03-27T15:35:13.106Z,35.40
2019-03-27T15:37:42.367Z,35.60
2019-03-27T15:40:12.370Z,35.80
2019-03-27T15:42:41.653Z,36.30
2019-03-27T15:45:13.131Z,36.90
2019-03-27T15:47:42.398Z,37.10
2019-03-27T15:50:11.798Z,38.10
2019-03-27T15:52:41.390Z,38.00
2019-03-27T15:55:10.903Z,38.00
2019-03-27T15:57:40.607Z,39.10
2019-03-27T16:00:10.187Z,40.10
2019-03-27T16:02:40.630Z,40.00
2019-03-27T16:05:10.130Z,40.00
2019-03-27T16:07:39.408Z,40.30
2019-03-27T16:10:08.739Z,40.90
2019-03-27T16:12:38.020Z,42.10
2019-03-27T16:15:11.107Z,42.30
2019-03-27T16:17:40.378Z,42.70
2019-03-27T16:20:11.006Z,42.60
2019-03-27T16:22:50.453Z,42.80
2019-03-27T16:25:11.478Z,43.30
2019-03-27T16:27:40.758Z,43.70
2019-03-27T16:30:11.497Z,44.50
2019-03-27T16:32:41.826Z,43.50
2019-03-27T16:35:11.440Z,44.60
2019-03-27T16:37:40.706Z,45.20
2019-03-27T16:40:10.521Z,45.20
2019-03-27T16:42:39.855Z,45.20
2019-03-27T16:45:09.962Z,45.00
2019-03-27T16:47:39.290Z,45.60
2019-03-27T16:50:09.398Z,45.80
2019-03-27T16:52:38.671Z,46.30
2019-03-27T16:55:08.478Z,46.50
2019-03-27T16:57:37.747Z,47.50
2019-03-27T17:00:08.955Z,46.90
2019-03-27T17:02:38.280Z,47.20
2019-03-27T17:05:07.790Z,47.10
2019-03-27T17:07:37.065Z,46.50
2019-03-27T17:10:07.956Z,46.80
2019-03-27T17:12:37.395Z,47.60
2019-03-27T17:15:07.532Z,47.70
2019-03-27T17:17:36.778Z,47.50
2019-03-27T17:20:10.719Z,47.80
2019-03-27T17:22:39.999Z,47.30
2019-03-27T17:25:10.299Z,47.40
2019-03-27T17:27:40.547Z,48.10
2019-03-27T17:30:11.226Z,48.40
2019-03-27T17:32:40.491Z,48.50
2019-03-27T17:35:10.099Z,48.80
2019-03-27T17:37:39.363Z,50.00
2019-03-27T17:40:08.909Z,50.20
2019-03-27T17:42:38.171Z,50.10
2019-03-27T17:45:08.074Z,50.00
2019-03-27T17:47:37.370Z,50.90
2019-03-27T17:50:07.070Z,51.70
2019-03-27T17:52:38.154Z,52.40
2019-03-27T17:55:08.136Z,52.80
2019-03-27T17:57:37.414Z,53.30
2019-03-27T18:00:08.850Z,53.70
2019-03-27T18:02:38.300Z,54.40
2019-03-27T18:05:08.067Z,54.70
2019-03-27T18:07:37.347Z,54.50
2019-03-27T18:10:07.946Z,54.80
2019-03-27T18:12:37.394Z,55.30
2019-03-27T18:15:07.710Z,55.50
2019-03-27T18:17:37.042Z,56.30
2019-03-27T18:20:06.662Z,57.00
2019-03-27T18:22:35.931Z,57.30
2019-03-27T18:25:07.053Z,56.70
2019-03-27T18:27:36.613Z,56.60
2019-03-27T18:30:07.815Z,57.20
2019-03-27T18:32:37.270Z,57.90
2019-03-27T18:35:07.157Z,58.00
2019-03-27T18:37:37.909Z,58.60
2019-03-27T18:40:07.610Z,59.40
2019-03-27T18:42:36.874Z,60.00
2019-03-27T18:45:07.852Z,60.30
2019-03-27T18:47:37.102Z,60.40
2019-03-27T18:50:08.874Z,60.70
2019-03-27T18:52:38.146Z,61.40
2019-03-27T18:55:07.496Z,62.00
2019-03-27T18:57:37.127Z,61.90
2019-03-27T19:00:10.210Z,63.70
2019-03-27T19:02:39.711Z,63.80
2019-03-27T19:05:10.104Z,65.90
2019-03-27T19:07:39.372Z,65.90
2019-03-27T19:10:08.978Z,66.50
2019-03-27T19:12:38.255Z,65.00
2019-03-27T19:15:19.415Z,65.00
2019-03-27T19:17:48.689Z,64.80
2019-03-27T19:20:18.034Z,64.90
2019-03-27T19:22:47.305Z,63.80
2019-03-27T19:25:16.639Z,64.70
2019-03-27T19:27:46.151Z,63.60
2019-03-27T19:30:15.755Z,64.50
2019-03-27T19:32:45.030Z,65.20
2019-03-27T19:35:14.366Z,66.00
2019-03-27T19:37:43.870Z,67.20
2019-03-27T19:40:13.567Z,66.30
2019-03-27T19:42:42.850Z,66.30
2019-03-27T19:45:12.631Z,66.50
2019-03-27T19:47:42.310Z,66.70
2019-03-27T19:50:12.023Z,66.40
2019-03-27T19:52:41.288Z,66.90
2019-03-27T19:55:10.643Z,67.30
2019-03-27T19:57:39.918Z,67.40
2019-03-27T20:00:11.248Z,67.60
2019-03-27T20:02:40.842Z,68.30
2019-03-27T20:05:10.951Z,68.30
2019-03-27T20:07:40.233Z,68.30
2019-03-27T20:10:09.737Z,68.50
2019-03-27T20:12:40.115Z,68.40
2019-03-27T20:15:12.065Z,68.70
2019-03-27T20:17:41.101Z,69.10
2019-03-27T20:20:11.520Z,69.70
2019-03-27T20:22:40.800Z,70.30
2019-03-27T20:25:10.902Z,70.40
2019-03-27T20:27:40.250Z,70.50
2019-03-27T20:30:15.312Z,70.80
2019-03-27T20:32:44.658Z,71.20
2019-03-27T20:35:14.314Z,71.10
2019-03-27T20:37:44.962Z,71.20
2019-03-27T20:40:16.034Z,71.50
2019-03-27T20:42:45.791Z,71.60
2019-03-27T20:45:15.468Z,71.70
2019-03-27T20:47:44.742Z,72.00
2019-03-27T20:50:14.422Z,72.00
2019-03-27T20:52:43.699Z,72.40
2019-03-27T20:55:13.316Z,72.70
2019-03-27T20:57:42.753Z,72.90
2019-03-27T21:00:13.231Z,73.20
2019-03-27T21:02:44.272Z,73.20
2019-03-27T21:05:13.624Z,73.10
2019-03-27T21:07:42.896Z,73.10
2019-03-27T21:10:12.687Z,73.70
2019-03-27T21:12:41.970Z,73.70
2019-03-27T21:15:11.769Z,73.70
2019-03-27T21:17:41.052Z,74.10
2019-03-27T21:20:10.882Z,74.10
2019-03-27T21:22:40.231Z,74.20
2019-03-27T21:25:10.308Z,74.00
2019-03-27T21:27:39.706Z,74.10
2019-03-27T21:30:10.510Z,74.00
2019-03-27T21:32:39.789Z,74.20
2019-03-27T21:35:09.290Z,74.30
2019-03-27T21:37:38.635Z,74.20
2019-03-27T21:40:09.732Z,74.10
2019-03-27T21:42:39.000Z,74.30
2019-03-27T21:45:09.280Z,74.70
2019-03-27T21:47:38.549Z,75.00
2019-03-27T21:50:08.530Z,75.40
2019-03-27T21:52:37.791Z,75.60
2019-03-27T21:55:16.838Z,75.80
2019-03-27T21:57:38.561Z,76.00
2019-03-27T22:00:09.505Z,76.30
2019-03-27T22:02:38.990Z,76.40
2019-03-27T22:05:08.251Z,76.40
2019-03-27T22:07:37.522Z,76.40
2019-03-27T22:10:08.014Z,76.90
2019-03-27T22:12:38.487Z,76.30
2019-03-27T22:15:09.694Z,76.30
2019-03-27T22:17:39.219Z,76.60
2019-03-27T22:20:09.019Z,76.40
2019-03-27T22:22:38.286Z,76.30
2019-03-27T22:25:07.987Z,76.50
2019-03-27T22:27:37.250Z,76.80
2019-03-27T22:30:07.559Z,77.40
2019-03-27T22:32:36.826Z,77.20
2019-03-27T22:35:09.338Z,77.60
2019-03-27T22:37:38.602Z,78.00
2019-03-27T22:40:08.215Z,77.70
2019-03-27T22:42:37.475Z,77.80
2019-03-27T22:45:07.414Z,77.50
2019-03-27T22:47:36.678Z,77.70
2019-03-27T22:50:08.128Z,78.10
2019-03-27T22:52:38.034Z,77.90
2019-03-27T22:55:08.474Z,78.50
2019-03-27T22:57:37.734Z,78.40
2019-03-27T23:00:09.430Z,78.40
2019-03-27T23:02:40.314Z,78.70
2019-03-27T23:05:10.133Z,78.70
2019-03-27T23:07:39.478Z,78.70
2019-03-27T23:10:08.983Z,78.90
2019-03-27T23:12:38.266Z,78.70
2019-03-27T23:15:09.773Z,78.90
2019-03-27T23:17:39.038Z,79.20
2019-03-27T23:20:08.676Z,79.60
2019-03-27T23:22:39.033Z,79.50
2019-03-27T23:25:08.730Z,79.60
2019-03-27T23:27:38.305Z,79.70
2019-03-27T23:30:09.031Z,79.60
2019-03-27T23:32:38.290Z,79.70
2019-03-27T23:35:08.493Z,79.70
2019-03-27T23:37:38.834Z,79.70
2019-03-27T23:40:08.270Z,79.10
2019-03-27T23:42:38.611Z,78.60
2019-03-27T23:45:08.311Z,78.70
2019-03-27T23:47:37.838Z,79.00
2019-03-27T23:50:08.846Z,79.40
2019-03-27T23:52:38.384Z,79.50
2019-03-27T23:55:07.886Z,79.70
2019-03-27T23:57:37.536Z,79.80
